Weather History for West Bend, WI

Change the Weather History Date:

Saturday, October 25, 2014

  Actual Average Record
Temperature  
Mean Temperature 57 °F -  
Max Temperature 64 °F 56 °F 78 °F (1963)
Min Temperature 48 °F 37 °F 21 °F (1933)
Degree Days  
Heating Degree Days 8    
Growing Degree Days 7 (Base 50)    
Moisture  
Dew Point 36 °F    
Average Humidity 52    
Maximum Humidity 94    
Minimum Humidity 21    
Precipitation  
Precipitation 0.00 in - - ()
Sea Level Pressure  
Sea Level Pressure 29.89 in    
Wind  
Wind Speed 11 mph (West)    
Max Wind Speed 23 mph    
Max Gust Speed 37 mph    
Visibility 9 miles    
Events      
Averages and records for this station are not official NWS values.
T = Trace of Precipitation, MM = Missing Value Source: NWS Daily Summary

Daily Weather History Graph

Daily Weather History Graph

Search for Another Location

Airport:

Trip Planner

Search our weather history database for the weather conditions in past years. The results will help you decide how hot, cold, wet, or windy it might be!

Date:

Astronomy

Oct. 25, 2014 Rise Set
Actual Time 7:18 AM CDT 5:53 PM CDT
Civil Twilight 6:49 AM CDT 6:22 PM CDT
Nautical Twilight 6:16 AM CDT 6:56 PM CDT
Astronomical Twilight 5:43 AM CDT 7:29 PM CDT
Moon 8:59 AM CDT (10/25) 7:13 PM CDT (10/25)
Length of Visible Light 11h 33m
Length of Day
10h 34m
Waxing Crescent, 3% of the Moon is Illuminated
Oct 25
Waxing Crescent
Oct 30
First Quarter
Nov 6
Full
Nov 14
Last Quarter
Nov 22
New

Hourly Weather History & Observations

Time (CDT) Temp. Dew Point Humidity Pressure Visibility Wind Dir Wind Speed Gust Speed Precip Events Conditions
12:15 AM 55.4 °F 46.4 °F 72% 29.86 in 10.0 mi WSW 5.8 mph - N/A   Scattered Clouds
12:35 AM 55.4 °F 46.4 °F 72% 29.86 in 10.0 mi WSW 6.9 mph - N/A   Clear
12:55 AM 53.6 °F 46.4 °F 77% 29.85 in 10.0 mi SW 6.9 mph - N/A   Clear
1:15 AM 53.6 °F 46.4 °F 77% 29.85 in 10.0 mi WSW 6.9 mph - N/A   Clear
1:35 AM 53.6 °F 48.2 °F 82% 29.84 in 10.0 mi WSW 8.1 mph - N/A   Clear
1:55 AM 53.6 °F 48.2 °F 82% 29.85 in 10.0 mi WSW 9.2 mph - N/A   Clear
2:15 AM 53.6 °F 50.0 °F 88% 29.86 in 7.0 mi West 10.4 mph - N/A   Clear
2:35 AM 53.6 °F 50.0 °F 88% 29.85 in 7.0 mi West 10.4 mph - N/A   Mostly Cloudy
2:55 AM 53.6 °F 50.0 °F 88% 29.85 in 5.0 mi West 11.5 mph 16.1 mph N/A   Overcast
3:15 AM 53.6 °F 51.8 °F 94% 29.85 in 5.0 mi West 10.4 mph - N/A   Overcast
3:35 AM 53.6 °F 51.8 °F 94% 29.85 in 5.0 mi West 11.5 mph - N/A   Overcast
3:55 AM 55.4 °F 51.8 °F 88% 29.85 in 5.0 mi West 13.8 mph 17.3 mph N/A   Overcast
4:15 AM 55.4 °F 51.8 °F 88% 29.85 in 5.0 mi West 9.2 mph - N/A   Overcast
4:35 AM 55.4 °F 51.8 °F 88% 29.85 in 5.0 mi West 11.5 mph - N/A   Overcast
4:55 AM 53.6 °F 51.8 °F 94% 29.85 in 5.0 mi West 8.1 mph - N/A   Overcast
5:15 AM 53.6 °F 51.8 °F 94% 29.86 in 5.0 mi West 8.1 mph - N/A   Mostly Cloudy
5:35 AM 53.6 °F 50.0 °F 88% 29.86 in 5.0 mi West 3.5 mph - N/A   Scattered Clouds
5:55 AM 53.6 °F 50.0 °F 88% 29.86 in 4.0 mi West 5.8 mph - N/A   Scattered Clouds
6:15 AM 53.6 °F 50.0 °F 88% 29.86 in 7.0 mi West 5.8 mph - N/A   Scattered Clouds
6:35 AM 53.6 °F 50.0 °F 88% 29.87 in 7.0 mi West 11.5 mph - N/A   Clear
6:55 AM 53.6 °F 50.0 °F 88% 29.87 in 7.0 mi West 10.4 mph - N/A   Clear
7:15 AM 53.6 °F 50.0 °F 88% 29.87 in 7.0 mi West 12.7 mph 16.1 mph N/A   Clear
7:35 AM 53.6 °F 48.2 °F 82% 29.87 in 7.0 mi West 10.4 mph 16.1 mph N/A   Clear
7:55 AM 53.6 °F 46.4 °F 77% 29.88 in 10.0 mi West 9.2 mph - N/A   Clear
8:15 AM 53.6 °F 46.4 °F 77% 29.88 in 10.0 mi West 11.5 mph 18.4 mph N/A   Clear
8:35 AM 55.4 °F 46.4 °F 72% 29.89 in 10.0 mi West 9.2 mph - N/A   Clear
8:55 AM 55.4 °F 46.4 °F 72% 29.90 in 10.0 mi West 12.7 mph 20.7 mph N/A   Clear
9:15 AM 55.4 °F 44.6 °F 67% 29.90 in 10.0 mi WNW 12.7 mph 23.0 mph N/A   Clear
9:35 AM 57.2 °F 44.6 °F 63% 29.91 in 10.0 mi West 16.1 mph 20.7 mph N/A   Clear
9:55 AM 59.0 °F 42.8 °F 55% 29.91 in 10.0 mi WNW 13.8 mph - N/A   Clear
10:15 AM 59.0 °F 41.0 °F 51% 29.91 in 10.0 mi WNW 13.8 mph - N/A   Clear
10:35 AM 59.0 °F 41.0 °F 51% 29.91 in 10.0 mi West 12.7 mph 20.7 mph N/A   Clear
10:55 AM 60.8 °F 37.4 °F 42% 29.91 in 10.0 mi West 16.1 mph 23.0 mph N/A   Clear
11:15 AM 60.8 °F 35.6 °F 39% 29.89 in 10.0 mi West 16.1 mph 24.2 mph N/A   Clear
11:35 AM 60.8 °F 32.0 °F 34% 29.89 in 10.0 mi West 17.3 mph 26.5 mph N/A   Clear
11:55 AM 62.6 °F 32.0 °F 32% 29.89 in 10.0 mi West 16.1 mph 28.8 mph N/A   Clear
12:15 PM 62.6 °F 30.2 °F 30% 29.89 in 10.0 mi West 21.9 mph 25.3 mph N/A   Clear
12:35 PM 64.4 °F 28.4 °F 26% 29.88 in 10.0 mi West 20.7 mph 28.8 mph N/A   Clear
12:55 PM 62.6 °F 28.4 °F 27% 29.88 in 10.0 mi West 18.4 mph 28.8 mph N/A   Clear
1:15 PM 64.4 °F 28.4 °F 26% 29.88 in 10.0 mi West 15.0 mph 21.9 mph N/A   Clear
1:35 PM 64.4 °F 26.6 °F 24% 29.88 in 10.0 mi West 18.4 mph 26.5 mph N/A   Clear
1:55 PM 64.4 °F 26.6 °F 24% 29.87 in 10.0 mi West 21.9 mph 34.5 mph N/A   Clear
2:15 PM 64.4 °F 23.0 °F 21% 29.87 in 10.0 mi WNW 20.7 mph 32.2 mph N/A   Clear
2:35 PM 64.4 °F 24.8 °F 22% 29.88 in 10.0 mi West 23.0 mph 31.1 mph N/A   Clear
2:55 PM 64.4 °F 24.8 °F 22% 29.88 in 10.0 mi West 21.9 mph 36.8 mph N/A   Clear
3:15 PM 64.4 °F 24.8 °F 22% 29.87 in 10.0 mi West 18.4 mph 31.1 mph N/A   Clear
3:35 PM 64.4 °F 24.8 °F 22% 29.87 in 10.0 mi West 19.6 mph 27.6 mph N/A   Clear
3:55 PM 64.4 °F 26.6 °F 24% 29.87 in 10.0 mi WNW 21.9 mph 25.3 mph N/A   Clear
4:15 PM 62.6 °F 23.0 °F 22% 29.88 in 10.0 mi West 21.9 mph 31.1 mph N/A   Clear
4:35 PM 62.6 °F 24.8 °F 24% 29.88 in 10.0 mi West 20.7 mph 27.6 mph N/A   Clear
4:55 PM 62.6 °F 24.8 °F 24% 29.88 in 10.0 mi West 19.6 mph 28.8 mph N/A   Clear
5:15 PM 62.6 °F 23.0 °F 22% 29.88 in 10.0 mi WNW 19.6 mph 25.3 mph N/A   Clear
5:35 PM 60.8 °F 23.0 °F 23% 29.88 in 10.0 mi West 17.3 mph 25.3 mph N/A   Clear
5:55 PM 59.0 °F 23.0 °F 25% 29.89 in 10.0 mi WNW 13.8 mph 25.3 mph N/A   Clear
6:15 PM 59.0 °F 24.8 °F 27% 29.89 in 10.0 mi West 11.5 mph 17.3 mph N/A   Clear
6:35 PM 59.0 °F 23.0 °F 25% 29.90 in 10.0 mi WNW 13.8 mph 23.0 mph N/A   Clear
6:55 PM 57.2 °F 23.0 °F 27% 29.91 in 10.0 mi West 13.8 mph 18.4 mph N/A   Clear
7:15 PM 55.4 °F 24.8 °F 31% 29.91 in 10.0 mi West 12.7 mph 18.4 mph N/A   Clear
7:35 PM 55.4 °F 23.0 °F 29% 29.92 in 10.0 mi WNW 13.8 mph 20.7 mph N/A   Clear
7:55 PM 55.4 °F 23.0 °F 29% 29.93 in 10.0 mi West 12.7 mph - N/A   Clear
8:15 PM 55.4 °F 23.0 °F 29% 29.93 in 10.0 mi West 12.7 mph 19.6 mph N/A   Clear
8:35 PM 55.4 °F 23.0 °F 29% 29.94 in 10.0 mi WNW 8.1 mph 17.3 mph N/A   Clear
8:55 PM 53.6 °F 23.0 °F 30% 29.94 in 10.0 mi West 10.4 mph - N/A   Clear
9:15 PM 53.6 °F 24.8 °F 33% 29.95 in 10.0 mi West 10.4 mph - N/A   Clear
9:35 PM 53.6 °F 24.8 °F 33% 29.95 in 10.0 mi West 11.5 mph 16.1 mph N/A   Clear
9:55 PM 51.8 °F 26.6 °F 38% 29.95 in 10.0 mi West 11.5 mph 17.3 mph N/A   Clear
10:15 PM 51.8 °F 26.6 °F 38% 29.95 in 10.0 mi West 10.4 mph - N/A   Clear
10:35 PM 50.0 °F 26.6 °F 40% 29.95 in 10.0 mi WNW 9.2 mph - N/A   Clear
11:15 PM 50.0 °F 26.6 °F 40% 29.95 in 10.0 mi West 12.7 mph 16.1 mph N/A   Clear
11:35 PM 50.0 °F 26.6 °F 40% 29.95 in 10.0 mi West 10.4 mph - N/A   Clear
11:55 PM 48.2 °F 26.6 °F 43% 29.95 in 10.0 mi WNW 8.1 mph - N/A   Clear